sensor_id;sensor_type;location;lat;lon;timestamp;P1;durP1;ratioP1;P2;durP2;ratioP2
73954;SDS011;62306;52.516;13.290;2023-03-01T00:01:27;39.05;;;19.48;;
73954;SDS011;62306;52.516;13.290;2023-03-01T00:03:56;40.58;;;18.60;;
73954;SDS011;62306;52.516;13.290;2023-03-01T00:06:24;39.45;;;18.90;;
73954;SDS011;62306;52.516;13.290;2023-03-01T00:08:52;41.17;;;19.10;;
73954;SDS011;62306;52.516;13.290;2023-03-01T00:11:19;39.80;;;17.65;;
73954;SDS011;62306;52.516;13.290;2023-03-01T00:13:48;32.53;;;18.00;;
73954;SDS011;62306;52.516;13.290;2023-03-01T00:16:17;37.33;;;18.63;;
73954;SDS011;62306;52.516;13.290;2023-03-01T00:18:47;46.88;;;18.73;;
73954;SDS011;62306;52.516;13.290;2023-03-01T00:21:14;43.05;;;19.15;;
73954;SDS011;62306;52.516;13.290;2023-03-01T00:23:41;42.83;;;19.98;;
73954;SDS011;62306;52.516;13.290;2023-03-01T00:26:08;35.65;;;17.88;;
73954;SDS011;62306;52.516;13.290;2023-03-01T00:28:38;42.38;;;18.40;;
73954;SDS011;62306;52.516;13.290;2023-03-01T00:31:05;39.63;;;19.05;;
73954;SDS011;62306;52.516;13.290;2023-03-01T00:33:32;36.30;;;18.17;;
73954;SDS011;62306;52.516;13.290;2023-03-01T00:36:02;37.58;;;18.60;;
73954;SDS011;62306;52.516;13.290;2023-03-01T00:38:29;38.20;;;19.52;;
73954;SDS011;62306;52.516;13.290;2023-03-01T00:41:02;35.40;;;18.25;;
73954;SDS011;62306;52.516;13.290;2023-03-01T00:43:29;40.38;;;19.17;;
73954;SDS011;62306;52.516;13.290;2023-03-01T00:46:01;42.08;;;18.70;;
73954;SDS011;62306;52.516;13.290;2023-03-01T00:48:28;35.97;;;18.88;;
73954;SDS011;62306;52.516;13.290;2023-03-01T00:50:55;37.47;;;18.40;;
73954;SDS011;62306;52.516;13.290;2023-03-01T00:53:23;43.28;;;20.58;;
73954;SDS011;62306;52.516;13.290;2023-03-01T00:55:50;38.35;;;18.83;;
73954;SDS011;62306;52.516;13.290;2023-03-01T00:58:17;39.78;;;18.30;;
73954;SDS011;62306;52.516;13.290;2023-03-01T01:00:44;39.05;;;18.77;;
73954;SDS011;62306;52.516;13.290;2023-03-01T01:03:11;39.78;;;17.85;;
73954;SDS011;62306;52.516;13.290;2023-03-01T01:05:37;43.00;;;19.27;;
73954;SDS011;62306;52.516;13.290;2023-03-01T01:08:04;37.58;;;18.35;;
73954;SDS011;62306;52.516;13.290;2023-03-01T01:10:34;39.40;;;17.88;;
73954;SDS011;62306;52.516;13.290;2023-03-01T01:13:01;31.08;;;17.48;;
73954;SDS011;62306;52.516;13.290;2023-03-01T01:15:28;43.53;;;17.83;;
73954;SDS011;62306;52.516;13.290;2023-03-01T01:17:55;37.83;;;19.00;;
73954;SDS011;62306;52.516;13.290;2023-03-01T01:20:22;35.45;;;17.92;;
73954;SDS011;62306;52.516;13.290;2023-03-01T01:22:48;35.33;;;18.65;;
73954;SDS011;62306;52.516;13.290;2023-03-01T01:25:16;38.22;;;17.83;;
73954;SDS011;62306;52.516;13.290;2023-03-01T01:27:44;38.08;;;18.00;;
73954;SDS011;62306;52.516;13.290;2023-03-01T01:30:12;31.88;;;17.27;;
73954;SDS011;62306;52.516;13.290;2023-03-01T01:32:39;32.65;;;18.23;;
73954;SDS011;62306;52.516;13.290;2023-03-01T01:35:06;37.45;;;18.98;;
73954;SDS011;62306;52.516;13.290;2023-03-01T01:37:33;35.95;;;16.85;;
73954;SDS011;62306;52.516;13.290;2023-03-01T01:40:00;35.88;;;18.38;;
73954;SDS011;62306;52.516;13.290;2023-03-01T01:42:29;36.08;;;17.90;;
73954;SDS011;62306;52.516;13.290;2023-03-01T01:48:01;38.00;;;18.02;;
73954;SDS011;62306;52.516;13.290;2023-03-01T01:50:31;35.40;;;17.73;;
73954;SDS011;62306;52.516;13.290;2023-03-01T01:53:03;34.77;;;18.57;;
73954;SDS011;62306;52.516;13.290;2023-03-01T01:55:35;40.38;;;18.75;;
73954;SDS011;62306;52.516;13.290;2023-03-01T01:58:05;41.08;;;19.95;;
73954;SDS011;62306;52.516;13.290;2023-03-01T02:00:36;29.25;;;17.00;;
73954;SDS011;62306;52.516;13.290;2023-03-01T02:03:04;35.70;;;18.08;;
73954;SDS011;62306;52.516;13.290;2023-03-01T02:05:37;37.28;;;18.02;;
73954;SDS011;62306;52.516;13.290;2023-03-01T02:08:08;37.17;;;17.70;;
73954;SDS011;62306;52.516;13.290;2023-03-01T02:10:37;36.05;;;17.95;;
73954;SDS011;62306;52.516;13.290;2023-03-01T02:13:05;40.17;;;19.50;;
73954;SDS011;62306;52.516;13.290;2023-03-01T02:15:33;35.20;;;19.15;;
73954;SDS011;62306;52.516;13.290;2023-03-01T02:18:03;34.22;;;17.95;;
73954;SDS011;62306;52.516;13.290;2023-03-01T02:20:33;38.05;;;19.63;;
73954;SDS011;62306;52.516;13.290;2023-03-01T02:23:03;38.38;;;18.35;;
73954;SDS011;62306;52.516;13.290;2023-03-01T02:25:34;41.60;;;18.52;;
73954;SDS011;62306;52.516;13.290;2023-03-01T02:28:08;38.28;;;17.50;;
73954;SDS011;62306;52.516;13.290;2023-03-01T02:30:39;37.85;;;18.38;;
73954;SDS011;62306;52.516;13.290;2023-03-01T02:33:27;35.15;;;17.85;;
73954;SDS011;62306;52.516;13.290;2023-03-01T02:35:57;37.13;;;18.45;;
73954;SDS011;62306;52.516;13.290;2023-03-01T02:38:26;37.78;;;18.10;;
73954;SDS011;62306;52.516;13.290;2023-03-01T02:40:54;35.67;;;18.90;;
73954;SDS011;62306;52.516;13.290;2023-03-01T02:43:24;34.13;;;17.33;;
73954;SDS011;62306;52.516;13.290;2023-03-01T02:45:57;34.35;;;16.85;;
73954;SDS011;62306;52.516;13.290;2023-03-01T02:48:25;35.60;;;17.40;;
73954;SDS011;62306;52.516;13.290;2023-03-01T02:50:55;36.22;;;18.58;;
73954;SDS011;62306;52.516;13.290;2023-03-01T02:53:34;40.10;;;17.13;;
73954;SDS011;62306;52.516;13.290;2023-03-01T02:56:07;35.45;;;18.10;;
73954;SDS011;62306;52.516;13.290;2023-03-01T02:58:38;36.92;;;18.27;;
73954;SDS011;62306;52.516;13.290;2023-03-01T03:01:14;40.53;;;19.23;;
73954;SDS011;62306;52.516;13.290;2023-03-01T03:03:41;39.88;;;19.63;;
73954;SDS011;62306;52.516;13.290;2023-03-01T03:06:08;42.92;;;19.73;;
73954;SDS011;62306;52.516;13.290;2023-03-01T03:08:35;40.10;;;17.35;;
73954;SDS011;62306;52.516;13.290;2023-03-01T03:11:02;40.53;;;19.33;;
73954;SDS011;62306;52.516;13.290;2023-03-01T03:13:29;36.40;;;17.85;;
73954;SDS011;62306;52.516;13.290;2023-03-01T03:15:57;36.50;;;18.02;;
73954;SDS011;62306;52.516;13.290;2023-03-01T03:18:25;38.90;;;18.30;;
73954;SDS011;62306;52.516;13.290;2023-03-01T03:20:52;38.10;;;18.02;;
73954;SDS011;62306;52.516;13.290;2023-03-01T03:23:20;32.22;;;16.95;;
73954;SDS011;62306;52.516;13.290;2023-03-01T03:25:48;41.80;;;18.15;;
73954;SDS011;62306;52.516;13.290;2023-03-01T03:28:16;33.45;;;18.17;;
73954;SDS011;62306;52.516;13.290;2023-03-01T03:30:43;37.78;;;17.67;;
73954;SDS011;62306;52.516;13.290;2023-03-01T03:33:11;33.67;;;16.83;;
73954;SDS011;62306;52.516;13.290;2023-03-01T03:35:41;32.83;;;17.20;;
73954;SDS011;62306;52.516;13.290;2023-03-01T03:38:10;38.15;;;17.92;;
73954;SDS011;62306;52.516;13.290;2023-03-01T03:40:42;41.55;;;16.63;;
73954;SDS011;62306;52.516;13.290;2023-03-01T03:43:11;32.65;;;17.73;;
73954;SDS011;62306;52.516;13.290;2023-03-01T03:45:39;41.10;;;17.73;;
73954;SDS011;62306;52.516;13.290;2023-03-01T03:48:07;36.35;;;17.25;;
73954;SDS011;62306;52.516;13.290;2023-03-01T03:50:35;32.88;;;16.58;;
73954;SDS011;62306;52.516;13.290;2023-03-01T03:53:04;39.58;;;18.00;;
73954;SDS011;62306;52.516;13.290;2023-03-01T03:55:32;36.00;;;16.60;;
73954;SDS011;62306;52.516;13.290;2023-03-01T03:58:01;36.30;;;16.27;;
73954;SDS011;62306;52.516;13.290;2023-03-01T04:00:32;39.00;;;16.75;;
73954;SDS011;62306;52.516;13.290;2023-03-01T04:02:59;36.63;;;17.15;;
73954;SDS011;62306;52.516;13.290;2023-03-01T04:05:27;37.08;;;17.10;;
73954;SDS011;62306;52.516;13.290;2023-03-01T04:07:54;33.40;;;16.90;;
73954;SDS011;62306;52.516;13.290;2023-03-01T04:10:34;33.75;;;17.08;;
73954;SDS011;62306;52.516;13.290;2023-03-01T04:13:03;32.83;;;17.20;;
73954;SDS011;62306;52.516;13.290;2023-03-01T04:15:30;38.00;;;18.25;;
73954;SDS011;62306;52.516;13.290;2023-03-01T04:17:58;32.35;;;16.73;;
73954;SDS011;62306;52.516;13.290;2023-03-01T04:20:26;37.33;;;16.95;;
73954;SDS011;62306;52.516;13.290;2023-03-01T04:22:57;36.13;;;17.02;;
73954;SDS011;62306;52.516;13.290;2023-03-01T04:25:25;28.92;;;15.68;;
73954;SDS011;62306;52.516;13.290;2023-03-01T04:27:53;34.92;;;16.70;;
73954;SDS011;62306;52.516;13.290;2023-03-01T04:30:20;35.35;;;17.52;;
73954;SDS011;62306;52.516;13.290;2023-03-01T04:32:50;36.33;;;16.27;;
73954;SDS011;62306;52.516;13.290;2023-03-01T04:35:17;30.25;;;17.17;;
73954;SDS011;62306;52.516;13.290;2023-03-01T04:37:44;37.25;;;17.17;;
73954;SDS011;62306;52.516;13.290;2023-03-01T04:40:11;43.33;;;17.38;;
73954;SDS011;62306;52.516;13.290;2023-03-01T04:42:41;33.95;;;16.33;;
73954;SDS011;62306;52.516;13.290;2023-03-01T04:45:10;29.95;;;16.10;;
73954;SDS011;62306;52.516;13.290;2023-03-01T04:47:39;40.80;;;17.80;;
73954;SDS011;62306;52.516;13.290;2023-03-01T04:50:08;33.72;;;16.38;;
73954;SDS011;62306;52.516;13.290;2023-03-01T04:52:35;36.83;;;16.08;;
73954;SDS011;62306;52.516;13.290;2023-03-01T04:55:03;34.42;;;16.65;;
73954;SDS011;62306;52.516;13.290;2023-03-01T04:57:30;36.28;;;17.02;;
73954;SDS011;62306;52.516;13.290;2023-03-01T04:59:57;35.78;;;16.25;;
73954;SDS011;62306;52.516;13.290;2023-03-01T05:02:25;34.78;;;16.50;;
73954;SDS011;62306;52.516;13.290;2023-03-01T05:04:52;32.03;;;16.63;;
73954;SDS011;62306;52.516;13.290;2023-03-01T05:07:22;37.88;;;16.02;;
73954;SDS011;62306;52.516;13.290;2023-03-01T05:09:51;29.15;;;15.75;;
73954;SDS011;62306;52.516;13.290;2023-03-01T05:12:19;34.10;;;15.40;;
73954;SDS011;62306;52.516;13.290;2023-03-01T05:14:46;35.55;;;16.48;;
73954;SDS011;62306;52.516;13.290;2023-03-01T05:17:13;28.98;;;14.52;;
73954;SDS011;62306;52.516;13.290;2023-03-01T05:19:41;32.35;;;15.32;;
73954;SDS011;62306;52.516;13.290;2023-03-01T05:22:08;34.33;;;16.67;;
73954;SDS011;62306;52.516;13.290;2023-03-01T05:24:35;33.40;;;16.10;;
73954;SDS011;62306;52.516;13.290;2023-03-01T05:27:03;30.83;;;17.20;;
73954;SDS011;62306;52.516;13.290;2023-03-01T05:29:32;33.70;;;17.98;;
73954;SDS011;62306;52.516;13.290;2023-03-01T05:32:00;33.67;;;16.55;;
73954;SDS011;62306;52.516;13.290;2023-03-01T05:34:29;41.72;;;18.15;;
73954;SDS011;62306;52.516;13.290;2023-03-01T05:36:59;33.72;;;17.90;;
73954;SDS011;62306;52.516;13.290;2023-03-01T05:39:27;40.65;;;17.15;;
73954;SDS011;62306;52.516;13.290;2023-03-01T05:41:57;34.25;;;17.25;;
73954;SDS011;62306;52.516;13.290;2023-03-01T05:44:26;34.13;;;17.27;;
73954;SDS011;62306;52.516;13.290;2023-03-01T05:46:53;29.83;;;16.60;;
73954;SDS011;62306;52.516;13.290;2023-03-01T05:49:21;38.00;;;17.05;;
73954;SDS011;62306;52.516;13.290;2023-03-01T05:51:50;36.30;;;17.83;;
73954;SDS011;62306;52.516;13.290;2023-03-01T05:54:19;39.08;;;17.65;;
73954;SDS011;62306;52.516;13.290;2023-03-01T05:56:47;35.42;;;17.45;;
73954;SDS011;62306;52.516;13.290;2023-03-01T05:59:14;33.55;;;17.33;;
73954;SDS011;62306;52.516;13.290;2023-03-01T06:01:41;36.22;;;17.67;;
73954;SDS011;62306;52.516;13.290;2023-03-01T06:04:08;37.58;;;17.80;;
73954;SDS011;62306;52.516;13.290;2023-03-01T06:06:35;32.45;;;17.40;;
73954;SDS011;62306;52.516;13.290;2023-03-01T06:09:02;36.38;;;18.13;;
73954;SDS011;62306;52.516;13.290;2023-03-01T06:11:31;34.90;;;18.73;;
73954;SDS011;62306;52.516;13.290;2023-03-01T06:13:59;35.08;;;17.85;;
73954;SDS011;62306;52.516;13.290;2023-03-01T06:16:26;37.47;;;19.00;;
73954;SDS011;62306;52.516;13.290;2023-03-01T06:18:53;32.92;;;17.63;;
73954;SDS011;62306;52.516;13.290;2023-03-01T06:21:19;37.58;;;17.95;;
73954;SDS011;62306;52.516;13.290;2023-03-01T06:23:46;38.47;;;18.02;;
73954;SDS011;62306;52.516;13.290;2023-03-01T06:26:13;38.15;;;17.67;;
73954;SDS011;62306;52.516;13.290;2023-03-01T06:28:41;34.72;;;17.67;;
73954;SDS011;62306;52.516;13.290;2023-03-01T06:31:11;38.95;;;17.80;;
73954;SDS011;62306;52.516;13.290;2023-03-01T06:33:38;36.03;;;18.33;;
73954;SDS011;62306;52.516;13.290;2023-03-01T06:36:05;37.10;;;16.95;;
73954;SDS011;62306;52.516;13.290;2023-03-01T06:38:33;41.72;;;16.70;;
73954;SDS011;62306;52.516;13.290;2023-03-01T06:41:00;35.30;;;17.45;;
73954;SDS011;62306;52.516;13.290;2023-03-01T06:43:26;35.72;;;16.85;;
73954;SDS011;62306;52.516;13.290;2023-03-01T06:45:55;33.22;;;17.90;;
73954;SDS011;62306;52.516;13.290;2023-03-01T06:48:22;33.55;;;17.08;;
73954;SDS011;62306;52.516;13.290;2023-03-01T06:50:48;40.70;;;18.67;;
73954;SDS011;62306;52.516;13.290;2023-03-01T06:53:15;39.28;;;18.83;;
73954;SDS011;62306;52.516;13.290;2023-03-01T06:55:42;36.00;;;17.38;;
73954;SDS011;62306;52.516;13.290;2023-03-01T06:58:09;36.47;;;17.80;;
73954;SDS011;62306;52.516;13.290;2023-03-01T07:00:37;41.60;;;19.48;;
73954;SDS011;62306;52.516;13.290;2023-03-01T07:03:07;40.42;;;18.77;;
73954;SDS011;62306;52.516;13.290;2023-03-01T07:05:35;39.67;;;18.40;;
73954;SDS011;62306;52.516;13.290;2023-03-01T07:08:02;42.08;;;18.20;;
73954;SDS011;62306;52.516;13.290;2023-03-01T07:10:28;37.30;;;18.50;;
73954;SDS011;62306;52.516;13.290;2023-03-01T07:12:56;38.53;;;18.73;;
73954;SDS011;62306;52.516;13.290;2023-03-01T07:15:23;32.75;;;18.15;;
73954;SDS011;62306;52.516;13.290;2023-03-01T07:17:50;32.67;;;17.75;;
73954;SDS011;62306;52.516;13.290;2023-03-01T07:20:19;34.90;;;17.92;;
73954;SDS011;62306;52.516;13.290;2023-03-01T07:22:49;37.55;;;19.52;;
73954;SDS011;62306;52.516;13.290;2023-03-01T07:25:16;38.50;;;16.92;;
73954;SDS011;62306;52.516;13.290;2023-03-01T07:27:43;36.90;;;18.40;;
73954;SDS011;62306;52.516;13.290;2023-03-01T07:30:14;34.22;;;18.25;;
73954;SDS011;62306;52.516;13.290;2023-03-01T07:32:42;38.40;;;17.48;;
73954;SDS011;62306;52.516;13.290;2023-03-01T07:35:10;41.80;;;18.33;;
73954;SDS011;62306;52.516;13.290;2023-03-01T07:37:38;43.95;;;19.08;;
73954;SDS011;62306;52.516;13.290;2023-03-01T07:40:06;39.42;;;18.80;;
73954;SDS011;62306;52.516;13.290;2023-03-01T07:42:34;34.42;;;17.52;;
73954;SDS011;62306;52.516;13.290;2023-03-01T07:45:00;43.15;;;17.20;;
73954;SDS011;62306;52.516;13.290;2023-03-01T07:47:27;32.80;;;15.95;;
73954;SDS011;62306;52.516;13.290;2023-03-01T07:49:54;31.85;;;15.18;;
73954;SDS011;62306;52.516;13.290;2023-03-01T07:52:21;40.72;;;17.42;;
73954;SDS011;62306;52.516;13.290;2023-03-01T07:54:50;27.05;;;13.30;;
73954;SDS011;62306;52.516;13.290;2023-03-01T07:57:17;29.13;;;14.15;;
73954;SDS011;62306;52.516;13.290;2023-03-01T07:59:43;27.77;;;13.48;;
73954;SDS011;62306;52.516;13.290;2023-03-01T08:02:11;27.95;;;14.00;;
73954;SDS011;62306;52.516;13.290;2023-03-01T08:04:40;29.45;;;13.35;;
73954;SDS011;62306;52.516;13.290;2023-03-01T08:07:07;24.48;;;13.45;;
73954;SDS011;62306;52.516;13.290;2023-03-01T08:09:34;32.42;;;14.18;;
73954;SDS011;62306;52.516;13.290;2023-03-01T08:12:03;29.85;;;13.88;;
73954;SDS011;62306;52.516;13.290;2023-03-01T08:14:31;29.30;;;12.80;;
73954;SDS011;62306;52.516;13.290;2023-03-01T08:16:58;24.75;;;12.90;;
73954;SDS011;62306;52.516;13.290;2023-03-01T08:19:25;22.75;;;11.65;;
73954;SDS011;62306;52.516;13.290;2023-03-01T08:21:53;27.35;;;12.95;;
73954;SDS011;62306;52.516;13.290;2023-03-01T08:24:20;31.90;;;13.90;;
73954;SDS011;62306;52.516;13.290;2023-03-01T08:26:47;29.95;;;14.00;;
73954;SDS011;62306;52.516;13.290;2023-03-01T08:29:16;28.83;;;12.77;;
73954;SDS011;62306;52.516;13.290;2023-03-01T08:31:42;26.95;;;12.55;;
73954;SDS011;62306;52.516;13.290;2023-03-01T08:34:10;24.67;;;12.45;;
73954;SDS011;62306;52.516;13.290;2023-03-01T08:36:40;24.10;;;11.77;;
73954;SDS011;62306;52.516;13.290;2023-03-01T08:39:08;21.65;;;9.88;;
73954;SDS011;62306;52.516;13.290;2023-03-01T08:41:36;18.60;;;9.98;;
73954;SDS011;62306;52.516;13.290;2023-03-01T08:44:03;22.83;;;9.32;;
73954;SDS011;62306;52.516;13.290;2023-03-01T08:46:33;17.08;;;8.65;;
73954;SDS011;62306;52.516;13.290;2023-03-01T08:49:03;16.13;;;8.18;;
73954;SDS011;62306;52.516;13.290;2023-03-01T08:51:32;19.35;;;8.95;;
73954;SDS011;62306;52.516;13.290;2023-03-01T08:54:01;23.83;;;8.70;;
73954;SDS011;62306;52.516;13.290;2023-03-01T08:56:28;17.15;;;8.27;;
73954;SDS011;62306;52.516;13.290;2023-03-01T08:58:55;18.75;;;8.57;;
73954;SDS011;62306;52.516;13.290;2023-03-01T09:01:22;21.63;;;8.40;;
73954;SDS011;62306;52.516;13.290;2023-03-01T09:03:51;16.70;;;8.30;;
73954;SDS011;62306;52.516;13.290;2023-03-01T09:06:18;16.42;;;8.10;;
73954;SDS011;62306;52.516;13.290;2023-03-01T09:08:46;23.00;;;8.30;;
73954;SDS011;62306;52.516;13.290;2023-03-01T09:11:14;12.02;;;5.95;;
73954;SDS011;62306;52.516;13.290;2023-03-01T09:13:42;12.75;;;6.05;;
73954;SDS011;62306;52.516;13.290;2023-03-01T09:16:10;17.17;;;6.50;;
73954;SDS011;62306;52.516;13.290;2023-03-01T09:18:37;10.18;;;5.70;;
73954;SDS011;62306;52.516;13.290;2023-03-01T09:21:07;14.85;;;6.40;;
73954;SDS011;62306;52.516;13.290;2023-03-01T09:23:36;12.23;;;6.20;;
73954;SDS011;62306;52.516;13.290;2023-03-01T09:26:04;13.60;;;6.28;;
73954;SDS011;62306;52.516;13.290;2023-03-01T09:28:31;22.52;;;8.60;;
73954;SDS011;62306;52.516;13.290;2023-03-01T09:30:58;15.43;;;7.55;;
73954;SDS011;62306;52.516;13.290;2023-03-01T09:33:26;14.82;;;6.85;;
73954;SDS011;62306;52.516;13.290;2023-03-01T09:35:56;12.88;;;6.50;;
73954;SDS011;62306;52.516;13.290;2023-03-01T09:38:24;12.73;;;6.03;;
73954;SDS011;62306;52.516;13.290;2023-03-01T09:40:51;12.25;;;6.05;;
73954;SDS011;62306;52.516;13.290;2023-03-01T09:43:20;15.18;;;6.05;;
73954;SDS011;62306;52.516;13.290;2023-03-01T09:45:51;8.93;;;5.67;;
73954;SDS011;62306;52.516;13.290;2023-03-01T09:48:21;11.63;;;5.40;;
73954;SDS011;62306;52.516;13.290;2023-03-01T09:50:52;12.23;;;5.70;;
73954;SDS011;62306;52.516;13.290;2023-03-01T09:53:19;16.20;;;6.20;;
73954;SDS011;62306;52.516;13.290;2023-03-01T09:55:50;17.45;;;7.22;;
73954;SDS011;62306;52.516;13.290;2023-03-01T09:58:27;20.10;;;6.35;;
73954;SDS011;62306;52.516;13.290;2023-03-01T10:01:02;11.65;;;5.38;;
73954;SDS011;62306;52.516;13.290;2023-03-01T10:03:42;9.80;;;5.85;;
73954;SDS011;62306;52.516;13.290;2023-03-01T10:06:12;11.57;;;5.80;;
73954;SDS011;62306;52.516;13.290;2023-03-01T10:08:42;11.38;;;5.20;;
73954;SDS011;62306;52.516;13.290;2023-03-01T10:11:19;12.38;;;5.43;;
73954;SDS011;62306;52.516;13.290;2023-03-01T10:13:50;8.63;;;5.13;;
73954;SDS011;62306;52.516;13.290;2023-03-01T10:16:24;9.80;;;5.25;;
73954;SDS011;62306;52.516;13.290;2023-03-01T10:18:55;9.63;;;5.22;;
73954;SDS011;62306;52.516;13.290;2023-03-01T10:21:27;10.73;;;5.50;;
73954;SDS011;62306;52.516;13.290;2023-03-01T10:23:56;10.20;;;5.53;;
73954;SDS011;62306;52.516;13.290;2023-03-01T10:26:38;11.13;;;5.35;;
73954;SDS011;62306;52.516;13.290;2023-03-01T10:29:13;7.38;;;4.43;;
73954;SDS011;62306;52.516;13.290;2023-03-01T10:31:41;8.80;;;4.20;;
73954;SDS011;62306;52.516;13.290;2023-03-01T10:34:11;10.05;;;4.20;;
73954;SDS011;62306;52.516;13.290;2023-03-01T10:36:41;12.13;;;4.63;;
73954;SDS011;62306;52.516;13.290;2023-03-01T10:44:36;11.63;;;4.63;;
73954;SDS011;62306;52.516;13.290;2023-03-01T10:47:05;11.15;;;4.95;;
73954;SDS011;62306;52.516;13.290;2023-03-01T10:49:52;10.85;;;5.25;;
73954;SDS011;62306;52.516;13.290;2023-03-01T10:52:24;12.10;;;5.25;;
73954;SDS011;62306;52.516;13.290;2023-03-01T10:55:01;10.27;;;4.95;;
73954;SDS011;62306;52.516;13.290;2023-03-01T10:57:35;8.60;;;4.75;;
73954;SDS011;62306;52.516;13.290;2023-03-01T11:00:15;16.92;;;5.10;;
73954;SDS011;62306;52.516;13.290;2023-03-01T11:02:47;11.63;;;5.85;;
73954;SDS011;62306;52.516;13.290;2023-03-01T11:05:19;13.90;;;6.30;;
73954;SDS011;62306;52.516;13.290;2023-03-01T11:07:49;15.00;;;6.43;;
73954;SDS011;62306;52.516;13.290;2023-03-01T11:10:18;11.60;;;5.93;;
73954;SDS011;62306;52.516;13.290;2023-03-01T11:12:48;14.35;;;6.25;;
73954;SDS011;62306;52.516;13.290;2023-03-01T11:15:24;11.07;;;5.57;;
73954;SDS011;62306;52.516;13.290;2023-03-01T11:17:53;14.10;;;5.88;;
73954;SDS011;62306;52.516;13.290;2023-03-01T11:20:25;10.30;;;5.45;;
73954;SDS011;62306;52.516;13.290;2023-03-01T11:22:56;10.68;;;5.03;;
73954;SDS011;62306;52.516;13.290;2023-03-01T11:25:29;11.35;;;5.25;;
73954;SDS011;62306;52.516;13.290;2023-03-01T11:30:31;9.93;;;5.18;;
73954;SDS011;62306;52.516;13.290;2023-03-01T11:33:13;7.93;;;4.57;;
73954;SDS011;62306;52.516;13.290;2023-03-01T11:35:47;10.68;;;5.50;;
73954;SDS011;62306;52.516;13.290;2023-03-01T11:38:22;10.38;;;5.30;;
73954;SDS011;62306;52.516;13.290;2023-03-01T11:40:52;9.25;;;5.13;;
73954;SDS011;62306;52.516;13.290;2023-03-01T11:43:28;10.75;;;4.95;;
73954;SDS011;62306;52.516;13.290;2023-03-01T11:49:12;8.07;;;4.68;;
73954;SDS011;62306;52.516;13.290;2023-03-01T11:52:03;7.93;;;4.40;;
73954;SDS011;62306;52.516;13.290;2023-03-01T11:54:44;10.02;;;4.70;;
73954;SDS011;62306;52.516;13.290;2023-03-01T11:57:28;12.80;;;4.87;;
73954;SDS011;62306;52.516;13.290;2023-03-01T12:00:22;12.52;;;5.13;;
73954;SDS011;62306;52.516;13.290;2023-03-01T12:06:00;7.95;;;4.40;;
73954;SDS011;62306;52.516;13.290;2023-03-01T12:09:00;7.10;;;4.60;;
73954;SDS011;62306;52.516;13.290;2023-03-01T12:11:39;10.10;;;5.65;;
73954;SDS011;62306;52.516;13.290;2023-03-01T12:14:22;9.77;;;4.93;;
73954;SDS011;62306;52.516;13.290;2023-03-01T12:17:11;11.73;;;4.90;;
73954;SDS011;62306;52.516;13.290;2023-03-01T12:19:58;9.10;;;4.70;;
73954;SDS011;62306;52.516;13.290;2023-03-01T12:22:35;8.35;;;4.70;;
73954;SDS011;62306;52.516;13.290;2023-03-01T12:25:18;9.13;;;4.72;;
73954;SDS011;62306;52.516;13.290;2023-03-01T12:27:56;10.15;;;4.55;;
73954;SDS011;62306;52.516;13.290;2023-03-01T12:30:44;9.88;;;4.47;;
73954;SDS011;62306;52.516;13.290;2023-03-01T12:33:40;8.00;;;4.97;;
73954;SDS011;62306;52.516;13.290;2023-03-01T12:36:21;8.10;;;4.20;;
73954;SDS011;62306;52.516;13.290;2023-03-01T12:39:03;11.30;;;4.00;;
73954;SDS011;62306;52.516;13.290;2023-03-01T12:41:43;7.50;;;4.63;;
73954;SDS011;62306;52.516;13.290;2023-03-01T12:44:20;8.52;;;4.20;;
73954;SDS011;62306;52.516;13.290;2023-03-01T12:47:00;9.35;;;4.20;;
73954;SDS011;62306;52.516;13.290;2023-03-01T12:49:40;9.30;;;4.65;;
73954;SDS011;62306;52.516;13.290;2023-03-01T12:52:11;12.52;;;4.78;;
73954;SDS011;62306;52.516;13.290;2023-03-01T12:54:42;6.90;;;4.05;;
73954;SDS011;62306;52.516;13.290;2023-03-01T12:57:12;11.80;;;5.70;;
73954;SDS011;62306;52.516;13.290;2023-03-01T12:59:47;9.25;;;4.85;;
73954;SDS011;62306;52.516;13.290;2023-03-01T13:02:30;8.52;;;4.60;;
73954;SDS011;62306;52.516;13.290;2023-03-01T13:05:10;14.45;;;4.70;;
73954;SDS011;62306;52.516;13.290;2023-03-01T13:07:51;9.40;;;4.57;;
73954;SDS011;62306;52.516;13.290;2023-03-01T13:10:26;11.77;;;5.15;;
73954;SDS011;62306;52.516;13.290;2023-03-01T13:13:12;9.65;;;4.28;;
73954;SDS011;62306;52.516;13.290;2023-03-01T13:15:44;6.75;;;3.72;;
73954;SDS011;62306;52.516;13.290;2023-03-01T13:18:29;5.53;;;3.30;;
73954;SDS011;62306;52.516;13.290;2023-03-01T13:21:00;6.60;;;3.97;;
73954;SDS011;62306;52.516;13.290;2023-03-01T13:23:30;5.47;;;3.40;;
73954;SDS011;62306;52.516;13.290;2023-03-01T13:26:02;6.30;;;3.05;;
73954;SDS011;62306;52.516;13.290;2023-03-01T13:37:34;5.78;;;3.38;;
73954;SDS011;62306;52.516;13.290;2023-03-01T13:40:05;7.40;;;3.05;;
73954;SDS011;62306;52.516;13.290;2023-03-01T13:42:51;6.82;;;3.17;;
73954;SDS011;62306;52.516;13.290;2023-03-01T13:45:20;7.15;;;3.28;;
73954;SDS011;62306;52.516;13.290;2023-03-01T13:47:50;10.27;;;3.67;;
73954;SDS011;62306;52.516;13.290;2023-03-01T13:50:23;4.60;;;3.40;;
73954;SDS011;62306;52.516;13.290;2023-03-01T13:52:56;4.63;;;2.80;;
73954;SDS011;62306;52.516;13.290;2023-03-01T13:55:27;5.10;;;2.90;;
73954;SDS011;62306;52.516;13.290;2023-03-01T13:58:04;4.85;;;3.28;;
73954;SDS011;62306;52.516;13.290;2023-03-01T14:00:44;9.48;;;2.63;;
73954;SDS011;62306;52.516;13.290;2023-03-01T14:03:12;5.60;;;2.67;;
73954;SDS011;62306;52.516;13.290;2023-03-01T14:05:41;4.50;;;2.60;;
73954;SDS011;62306;52.516;13.290;2023-03-01T14:08:19;3.80;;;2.10;;
73954;SDS011;62306;52.516;13.290;2023-03-01T14:10:53;5.13;;;2.72;;
73954;SDS011;62306;52.516;13.290;2023-03-01T14:13:30;4.65;;;2.80;;
73954;SDS011;62306;52.516;13.290;2023-03-01T14:16:12;4.80;;;2.15;;
73954;SDS011;62306;52.516;13.290;2023-03-01T14:18:51;6.28;;;2.45;;
73954;SDS011;62306;52.516;13.290;2023-03-01T14:21:24;4.15;;;2.45;;
73954;SDS011;62306;52.516;13.290;2023-03-01T14:23:53;6.75;;;2.83;;
73954;SDS011;62306;52.516;13.290;2023-03-01T14:26:21;5.43;;;3.40;;
73954;SDS011;62306;52.516;13.290;2023-03-01T14:28:49;5.93;;;2.75;;
73954;SDS011;62306;52.516;13.290;2023-03-01T14:31:30;7.18;;;2.70;;
73954;SDS011;62306;52.516;13.290;2023-03-01T14:34:00;7.80;;;2.83;;
73954;SDS011;62306;52.516;13.290;2023-03-01T14:36:27;5.57;;;2.67;;
73954;SDS011;62306;52.516;13.290;2023-03-01T14:38:57;11.25;;;3.53;;
73954;SDS011;62306;52.516;13.290;2023-03-01T14:41:30;5.45;;;2.58;;
73954;SDS011;62306;52.516;13.290;2023-03-01T14:44:00;8.35;;;2.78;;
73954;SDS011;62306;52.516;13.290;2023-03-01T14:46:32;5.43;;;2.53;;
73954;SDS011;62306;52.516;13.290;2023-03-01T14:49:02;4.80;;;2.53;;
73954;SDS011;62306;52.516;13.290;2023-03-01T14:51:35;2.67;;;1.70;;
73954;SDS011;62306;52.516;13.290;2023-03-01T14:54:05;5.97;;;2.45;;
73954;SDS011;62306;52.516;13.290;2023-03-01T14:56:46;5.65;;;2.40;;
73954;SDS011;62306;52.516;13.290;2023-03-01T14:59:13;3.85;;;2.33;;
73954;SDS011;62306;52.516;13.290;2023-03-01T15:01:40;5.25;;;2.40;;